sensor_id;sensor_type;location;lat;lon;timestamp;P1;durP1;ratioP1;P2;durP2;ratioP2
19804;SDS011;10062;51.052;13.756;2023-05-14T00:01:52;15.83;;;11.70;;
19804;SDS011;10062;51.052;13.756;2023-05-14T00:04:24;16.87;;;11.77;;
19804;SDS011;10062;51.052;13.756;2023-05-14T00:06:56;19.57;;;12.00;;
19804;SDS011;10062;51.052;13.756;2023-05-14T00:09:27;13.77;;;10.43;;
19804;SDS011;10062;51.052;13.756;2023-05-14T00:12:00;17.47;;;11.43;;
19804;SDS011;10062;51.052;13.756;2023-05-14T00:14:31;18.63;;;11.40;;
19804;SDS011;10062;51.052;13.756;2023-05-14T00:17:04;14.70;;;10.80;;
19804;SDS011;10062;51.052;13.756;2023-05-14T00:19:36;15.77;;;12.07;;
19804;SDS011;10062;51.052;13.756;2023-05-14T00:22:10;16.40;;;11.63;;
19804;SDS011;10062;51.052;13.756;2023-05-14T00:24:42;16.20;;;11.40;;
19804;SDS011;10062;51.052;13.756;2023-05-14T00:27:14;16.47;;;11.57;;
19804;SDS011;10062;51.052;13.756;2023-05-14T00:29:46;15.93;;;10.80;;
19804;SDS011;10062;51.052;13.756;2023-05-14T00:32:19;15.93;;;10.60;;
19804;SDS011;10062;51.052;13.756;2023-05-14T00:34:51;17.47;;;11.93;;
19804;SDS011;10062;51.052;13.756;2023-05-14T00:37:23;13.63;;;10.47;;
19804;SDS011;10062;51.052;13.756;2023-05-14T00:39:54;15.40;;;11.07;;
19804;SDS011;10062;51.052;13.756;2023-05-14T00:42:26;13.13;;;10.40;;
19804;SDS011;10062;51.052;13.756;2023-05-14T00:44:58;15.40;;;10.80;;
19804;SDS011;10062;51.052;13.756;2023-05-14T00:47:31;18.27;;;10.13;;
19804;SDS011;10062;51.052;13.756;2023-05-14T00:50:04;13.80;;;10.10;;
19804;SDS011;10062;51.052;13.756;2023-05-14T00:52:37;16.60;;;10.30;;
19804;SDS011;10062;51.052;13.756;2023-05-14T00:55:09;13.83;;;9.67;;
19804;SDS011;10062;51.052;13.756;2023-05-14T00:57:45;15.47;;;9.90;;
19804;SDS011;10062;51.052;13.756;2023-05-14T01:00:17;13.07;;;9.90;;
19804;SDS011;10062;51.052;13.756;2023-05-14T01:02:50;15.43;;;10.87;;
19804;SDS011;10062;51.052;13.756;2023-05-14T01:05:22;16.43;;;10.30;;
19804;SDS011;10062;51.052;13.756;2023-05-14T01:08:00;15.10;;;11.23;;
19804;SDS011;10062;51.052;13.756;2023-05-14T01:10:38;16.00;;;10.57;;
19804;SDS011;10062;51.052;13.756;2023-05-14T01:13:17;17.17;;;11.30;;
19804;SDS011;10062;51.052;13.756;2023-05-14T01:15:53;13.13;;;9.83;;
19804;SDS011;10062;51.052;13.756;2023-05-14T01:18:28;15.90;;;10.33;;
19804;SDS011;10062;51.052;13.756;2023-05-14T01:21:02;13.53;;;10.17;;
19804;SDS011;10062;51.052;13.756;2023-05-14T01:23:36;15.37;;;10.23;;
19804;SDS011;10062;51.052;13.756;2023-05-14T01:26:08;14.60;;;11.20;;
19804;SDS011;10062;51.052;13.756;2023-05-14T01:28:40;15.23;;;10.63;;
19804;SDS011;10062;51.052;13.756;2023-05-14T01:31:14;13.13;;;9.93;;
19804;SDS011;10062;51.052;13.756;2023-05-14T01:33:54;17.50;;;10.93;;
19804;SDS011;10062;51.052;13.756;2023-05-14T01:36:29;16.03;;;10.80;;
19804;SDS011;10062;51.052;13.756;2023-05-14T01:39:03;16.27;;;11.03;;
19804;SDS011;10062;51.052;13.756;2023-05-14T01:41:38;16.20;;;10.67;;
19804;SDS011;10062;51.052;13.756;2023-05-14T01:44:11;20.30;;;10.93;;
19804;SDS011;10062;51.052;13.756;2023-05-14T01:46:44;13.83;;;10.47;;
19804;SDS011;10062;51.052;13.756;2023-05-14T01:49:16;18.63;;;11.60;;
19804;SDS011;10062;51.052;13.756;2023-05-14T01:51:49;19.63;;;10.90;;
19804;SDS011;10062;51.052;13.756;2023-05-14T01:54:22;17.33;;;11.97;;
19804;SDS011;10062;51.052;13.756;2023-05-14T01:56:53;16.47;;;11.00;;
19804;SDS011;10062;51.052;13.756;2023-05-14T01:59:25;17.97;;;11.43;;
19804;SDS011;10062;51.052;13.756;2023-05-14T02:01:58;16.23;;;11.87;;
19804;SDS011;10062;51.052;13.756;2023-05-14T02:04:30;16.53;;;11.60;;
19804;SDS011;10062;51.052;13.756;2023-05-14T02:07:02;14.70;;;11.30;;
19804;SDS011;10062;51.052;13.756;2023-05-14T02:09:35;16.20;;;11.10;;
19804;SDS011;10062;51.052;13.756;2023-05-14T02:12:07;13.97;;;11.03;;
19804;SDS011;10062;51.052;13.756;2023-05-14T02:14:40;15.53;;;11.60;;
19804;SDS011;10062;51.052;13.756;2023-05-14T02:17:12;17.93;;;11.30;;
19804;SDS011;10062;51.052;13.756;2023-05-14T02:19:45;17.63;;;11.33;;
19804;SDS011;10062;51.052;13.756;2023-05-14T02:22:17;15.33;;;12.00;;
19804;SDS011;10062;51.052;13.756;2023-05-14T02:24:51;17.20;;;12.43;;
19804;SDS011;10062;51.052;13.756;2023-05-14T02:27:22;14.40;;;11.33;;
19804;SDS011;10062;51.052;13.756;2023-05-14T02:29:54;16.70;;;11.57;;
19804;SDS011;10062;51.052;13.756;2023-05-14T02:32:29;14.87;;;11.13;;
19804;SDS011;10062;51.052;13.756;2023-05-14T02:35:01;14.03;;;11.10;;
19804;SDS011;10062;51.052;13.756;2023-05-14T02:37:33;21.23;;;11.67;;
19804;SDS011;10062;51.052;13.756;2023-05-14T02:40:07;14.93;;;10.30;;
19804;SDS011;10062;51.052;13.756;2023-05-14T02:42:39;13.47;;;10.33;;
19804;SDS011;10062;51.052;13.756;2023-05-14T02:45:11;18.43;;;11.83;;
19804;SDS011;10062;51.052;13.756;2023-05-14T02:47:43;15.73;;;10.50;;
19804;SDS011;10062;51.052;13.756;2023-05-14T02:50:15;14.37;;;10.77;;
19804;SDS011;10062;51.052;13.756;2023-05-14T02:52:46;18.80;;;12.10;;
19804;SDS011;10062;51.052;13.756;2023-05-14T02:55:20;17.00;;;11.37;;
19804;SDS011;10062;51.052;13.756;2023-05-14T02:57:51;14.20;;;10.57;;
19804;SDS011;10062;51.052;13.756;2023-05-14T03:00:23;16.87;;;11.67;;
19804;SDS011;10062;51.052;13.756;2023-05-14T03:02:55;15.63;;;10.97;;
19804;SDS011;10062;51.052;13.756;2023-05-14T03:05:27;15.57;;;10.93;;
19804;SDS011;10062;51.052;13.756;2023-05-14T03:07:59;16.07;;;11.27;;
19804;SDS011;10062;51.052;13.756;2023-05-14T03:10:32;15.20;;;10.60;;
19804;SDS011;10062;51.052;13.756;2023-05-14T03:13:03;14.17;;;10.63;;
19804;SDS011;10062;51.052;13.756;2023-05-14T03:15:35;15.43;;;10.67;;
19804;SDS011;10062;51.052;13.756;2023-05-14T03:18:07;14.60;;;11.17;;
19804;SDS011;10062;51.052;13.756;2023-05-14T03:20:38;13.70;;;10.47;;
19804;SDS011;10062;51.052;13.756;2023-05-14T03:23:11;14.03;;;10.27;;
19804;SDS011;10062;51.052;13.756;2023-05-14T03:25:45;15.13;;;11.30;;
19804;SDS011;10062;51.052;13.756;2023-05-14T03:28:16;16.13;;;10.57;;
19804;SDS011;10062;51.052;13.756;2023-05-14T03:30:48;18.20;;;12.13;;
19804;SDS011;10062;51.052;13.756;2023-05-14T03:33:20;13.67;;;10.57;;
19804;SDS011;10062;51.052;13.756;2023-05-14T03:35:51;14.00;;;10.37;;
19804;SDS011;10062;51.052;13.756;2023-05-14T03:38:24;15.73;;;11.10;;
19804;SDS011;10062;51.052;13.756;2023-05-14T03:40:57;14.00;;;11.13;;
19804;SDS011;10062;51.052;13.756;2023-05-14T03:43:29;13.13;;;10.47;;
19804;SDS011;10062;51.052;13.756;2023-05-14T03:46:01;14.17;;;10.63;;
19804;SDS011;10062;51.052;13.756;2023-05-14T03:48:33;14.93;;;11.07;;
19804;SDS011;10062;51.052;13.756;2023-05-14T03:51:07;16.93;;;11.30;;
19804;SDS011;10062;51.052;13.756;2023-05-14T03:53:39;15.87;;;11.13;;
19804;SDS011;10062;51.052;13.756;2023-05-14T03:56:12;16.40;;;11.83;;
19804;SDS011;10062;51.052;13.756;2023-05-14T03:58:46;16.13;;;11.17;;
19804;SDS011;10062;51.052;13.756;2023-05-14T04:01:18;15.27;;;11.37;;
19804;SDS011;10062;51.052;13.756;2023-05-14T04:03:51;16.33;;;11.17;;
19804;SDS011;10062;51.052;13.756;2023-05-14T04:06:23;16.50;;;10.93;;
19804;SDS011;10062;51.052;13.756;2023-05-14T04:08:55;13.33;;;10.33;;
19804;SDS011;10062;51.052;13.756;2023-05-14T04:11:28;16.03;;;11.83;;
19804;SDS011;10062;51.052;13.756;2023-05-14T04:14:00;17.07;;;11.33;;
19804;SDS011;10062;51.052;13.756;2023-05-14T04:16:32;16.27;;;10.50;;
19804;SDS011;10062;51.052;13.756;2023-05-14T04:19:04;14.93;;;10.37;;
19804;SDS011;10062;51.052;13.756;2023-05-14T04:21:36;13.80;;;10.50;;
19804;SDS011;10062;51.052;13.756;2023-05-14T04:24:08;15.20;;;11.53;;
19804;SDS011;10062;51.052;13.756;2023-05-14T04:26:41;14.87;;;11.03;;
19804;SDS011;10062;51.052;13.756;2023-05-14T04:29:12;12.73;;;10.27;;
19804;SDS011;10062;51.052;13.756;2023-05-14T04:31:44;14.40;;;9.73;;
19804;SDS011;10062;51.052;13.756;2023-05-14T04:34:16;15.17;;;10.97;;
19804;SDS011;10062;51.052;13.756;2023-05-14T04:36:48;14.50;;;10.37;;
19804;SDS011;10062;51.052;13.756;2023-05-14T04:39:20;15.93;;;9.80;;
19804;SDS011;10062;51.052;13.756;2023-05-14T04:41:53;14.00;;;10.43;;
19804;SDS011;10062;51.052;13.756;2023-05-14T04:44:24;13.93;;;9.80;;
19804;SDS011;10062;51.052;13.756;2023-05-14T04:46:56;13.00;;;10.23;;
19804;SDS011;10062;51.052;13.756;2023-05-14T04:49:28;15.67;;;10.90;;
19804;SDS011;10062;51.052;13.756;2023-05-14T04:52:00;12.43;;;10.23;;
19804;SDS011;10062;51.052;13.756;2023-05-14T04:54:32;14.30;;;9.97;;
19804;SDS011;10062;51.052;13.756;2023-05-14T04:57:05;12.67;;;9.83;;
19804;SDS011;10062;51.052;13.756;2023-05-14T04:59:36;12.57;;;10.00;;
19804;SDS011;10062;51.052;13.756;2023-05-14T05:02:08;13.23;;;10.00;;
19804;SDS011;10062;51.052;13.756;2023-05-14T05:04:40;13.63;;;9.40;;
19804;SDS011;10062;51.052;13.756;2023-05-14T05:07:11;11.30;;;9.13;;
19804;SDS011;10062;51.052;13.756;2023-05-14T05:09:43;11.83;;;8.57;;
19804;SDS011;10062;51.052;13.756;2023-05-14T05:12:16;13.70;;;9.93;;
19804;SDS011;10062;51.052;13.756;2023-05-14T05:14:48;12.90;;;9.37;;
19804;SDS011;10062;51.052;13.756;2023-05-14T05:17:19;16.13;;;11.23;;
19804;SDS011;10062;51.052;13.756;2023-05-14T05:19:51;13.37;;;10.00;;
19804;SDS011;10062;51.052;13.756;2023-05-14T05:22:23;13.93;;;8.67;;
19804;SDS011;10062;51.052;13.756;2023-05-14T05:24:54;24.37;;;14.73;;
19804;SDS011;10062;51.052;13.756;2023-05-14T05:27:27;16.03;;;10.43;;
19804;SDS011;10062;51.052;13.756;2023-05-14T05:29:59;16.20;;;9.47;;
19804;SDS011;10062;51.052;13.756;2023-05-14T05:32:31;10.70;;;8.30;;
19804;SDS011;10062;51.052;13.756;2023-05-14T05:35:03;10.80;;;8.67;;
19804;SDS011;10062;51.052;13.756;2023-05-14T05:37:36;12.00;;;8.57;;
19804;SDS011;10062;51.052;13.756;2023-05-14T05:40:07;16.63;;;9.10;;
19804;SDS011;10062;51.052;13.756;2023-05-14T05:42:41;14.17;;;9.07;;
19804;SDS011;10062;51.052;13.756;2023-05-14T05:45:12;12.83;;;8.47;;
19804;SDS011;10062;51.052;13.756;2023-05-14T05:47:44;11.63;;;8.50;;
19804;SDS011;10062;51.052;13.756;2023-05-14T05:50:16;11.57;;;8.43;;
19804;SDS011;10062;51.052;13.756;2023-05-14T05:52:47;12.60;;;8.80;;
19804;SDS011;10062;51.052;13.756;2023-05-14T05:55:19;12.37;;;8.90;;
19804;SDS011;10062;51.052;13.756;2023-05-14T05:57:52;11.37;;;8.53;;
19804;SDS011;10062;51.052;13.756;2023-05-14T06:00:24;11.17;;;8.07;;
19804;SDS011;10062;51.052;13.756;2023-05-14T06:02:56;13.80;;;8.40;;
19804;SDS011;10062;51.052;13.756;2023-05-14T06:05:27;14.10;;;7.80;;
19804;SDS011;10062;51.052;13.756;2023-05-14T06:07:59;9.30;;;7.60;;
19804;SDS011;10062;51.052;13.756;2023-05-14T06:10:31;13.87;;;8.43;;
19804;SDS011;10062;51.052;13.756;2023-05-14T06:13:04;10.00;;;7.37;;
19804;SDS011;10062;51.052;13.756;2023-05-14T06:15:36;10.00;;;7.93;;
19804;SDS011;10062;51.052;13.756;2023-05-14T06:18:07;12.00;;;7.80;;
19804;SDS011;10062;51.052;13.756;2023-05-14T06:20:39;13.10;;;8.10;;
19804;SDS011;10062;51.052;13.756;2023-05-14T06:23:11;11.43;;;8.43;;
19804;SDS011;10062;51.052;13.756;2023-05-14T06:25:42;14.40;;;8.10;;
19804;SDS011;10062;51.052;13.756;2023-05-14T06:28:15;13.17;;;7.67;;
19804;SDS011;10062;51.052;13.756;2023-05-14T06:30:48;11.90;;;7.30;;
19804;SDS011;10062;51.052;13.756;2023-05-14T06:33:20;10.90;;;7.33;;
19804;SDS011;10062;51.052;13.756;2023-05-14T06:35:58;13.37;;;8.00;;
19804;SDS011;10062;51.052;13.756;2023-05-14T06:38:31;10.70;;;6.83;;
19804;SDS011;10062;51.052;13.756;2023-05-14T06:41:02;9.73;;;6.30;;
19804;SDS011;10062;51.052;13.756;2023-05-14T06:43:35;10.20;;;6.90;;
19804;SDS011;10062;51.052;13.756;2023-05-14T06:46:07;10.40;;;7.27;;
19804;SDS011;10062;51.052;13.756;2023-05-14T06:48:39;10.53;;;6.73;;
19804;SDS011;10062;51.052;13.756;2023-05-14T06:51:10;13.37;;;6.57;;
19804;SDS011;10062;51.052;13.756;2023-05-14T06:53:43;11.23;;;6.93;;
19804;SDS011;10062;51.052;13.756;2023-05-14T06:56:15;10.60;;;7.30;;
19804;SDS011;10062;51.052;13.756;2023-05-14T06:58:48;9.43;;;6.37;;
19804;SDS011;10062;51.052;13.756;2023-05-14T07:01:20;9.50;;;6.00;;
19804;SDS011;10062;51.052;13.756;2023-05-14T07:03:52;11.00;;;5.80;;
19804;SDS011;10062;51.052;13.756;2023-05-14T07:06:23;7.27;;;5.80;;
19804;SDS011;10062;51.052;13.756;2023-05-14T07:08:55;9.43;;;5.90;;
19804;SDS011;10062;51.052;13.756;2023-05-14T07:11:26;9.10;;;6.30;;
19804;SDS011;10062;51.052;13.756;2023-05-14T07:14:00;8.33;;;5.63;;
19804;SDS011;10062;51.052;13.756;2023-05-14T07:16:31;10.13;;;5.30;;
19804;SDS011;10062;51.052;13.756;2023-05-14T07:19:03;8.27;;;5.73;;
19804;SDS011;10062;51.052;13.756;2023-05-14T07:21:35;9.23;;;5.30;;
19804;SDS011;10062;51.052;13.756;2023-05-14T07:24:06;9.07;;;5.17;;
19804;SDS011;10062;51.052;13.756;2023-05-14T07:26:38;8.80;;;6.43;;
19804;SDS011;10062;51.052;13.756;2023-05-14T07:29:11;6.93;;;5.47;;
19804;SDS011;10062;51.052;13.756;2023-05-14T07:31:43;7.00;;;4.90;;
19804;SDS011;10062;51.052;13.756;2023-05-14T07:34:15;8.30;;;5.53;;
19804;SDS011;10062;51.052;13.756;2023-05-14T07:36:48;10.73;;;7.57;;
19804;SDS011;10062;51.052;13.756;2023-05-14T07:39:19;6.93;;;5.07;;
19804;SDS011;10062;51.052;13.756;2023-05-14T07:41:51;9.03;;;5.43;;
19804;SDS011;10062;51.052;13.756;2023-05-14T07:44:25;7.87;;;5.27;;
19804;SDS011;10062;51.052;13.756;2023-05-14T07:46:57;6.53;;;4.93;;
19804;SDS011;10062;51.052;13.756;2023-05-14T07:49:28;7.17;;;4.80;;
19804;SDS011;10062;51.052;13.756;2023-05-14T07:52:00;6.57;;;5.03;;
19804;SDS011;10062;51.052;13.756;2023-05-14T07:54:31;6.53;;;5.00;;
19804;SDS011;10062;51.052;13.756;2023-05-14T07:57:03;8.50;;;5.87;;
19804;SDS011;10062;51.052;13.756;2023-05-14T07:59:36;9.03;;;5.83;;
19804;SDS011;10062;51.052;13.756;2023-05-14T08:02:08;7.03;;;5.53;;
19804;SDS011;10062;51.052;13.756;2023-05-14T08:04:41;6.77;;;4.90;;
19804;SDS011;10062;51.052;13.756;2023-05-14T08:07:13;7.40;;;4.63;;
19804;SDS011;10062;51.052;13.756;2023-05-14T08:09:45;7.90;;;5.43;;
19804;SDS011;10062;51.052;13.756;2023-05-14T08:12:16;6.17;;;4.50;;
19804;SDS011;10062;51.052;13.756;2023-05-14T08:14:49;8.70;;;4.50;;
19804;SDS011;10062;51.052;13.756;2023-05-14T08:17:21;5.77;;;4.17;;
19804;SDS011;10062;51.052;13.756;2023-05-14T08:19:53;6.43;;;4.53;;
19804;SDS011;10062;51.052;13.756;2023-05-14T08:22:24;7.47;;;5.07;;
19804;SDS011;10062;51.052;13.756;2023-05-14T08:24:57;7.63;;;4.40;;
19804;SDS011;10062;51.052;13.756;2023-05-14T08:27:30;6.20;;;4.10;;
19804;SDS011;10062;51.052;13.756;2023-05-14T08:30:03;7.20;;;4.67;;
19804;SDS011;10062;51.052;13.756;2023-05-14T08:32:36;9.87;;;4.60;;
19804;SDS011;10062;51.052;13.756;2023-05-14T08:35:08;6.77;;;4.70;;
19804;SDS011;10062;51.052;13.756;2023-05-14T08:37:40;7.95;;;4.60;;
19804;SDS011;10062;51.052;13.756;2023-05-14T08:40:12;6.80;;;4.20;;
19804;SDS011;10062;51.052;13.756;2023-05-14T08:42:43;9.05;;;4.35;;
19804;SDS011;10062;51.052;13.756;2023-05-14T08:45:17;5.13;;;3.88;;
19804;SDS011;10062;51.052;13.756;2023-05-14T08:47:49;6.47;;;4.53;;
19804;SDS011;10062;51.052;13.756;2023-05-14T08:50:21;9.13;;;4.97;;
19804;SDS011;10062;51.052;13.756;2023-05-14T08:52:53;6.43;;;4.63;;
19804;SDS011;10062;51.052;13.756;2023-05-14T08:55:25;8.40;;;4.10;;
19804;SDS011;10062;51.052;13.756;2023-05-14T08:57:58;7.35;;;5.00;;
19804;SDS011;10062;51.052;13.756;2023-05-14T09:00:31;6.97;;;5.10;;
19804;SDS011;10062;51.052;13.756;2023-05-14T09:03:03;6.85;;;5.22;;
19804;SDS011;10062;51.052;13.756;2023-05-14T09:05:36;8.23;;;5.40;;
19804;SDS011;10062;51.052;13.756;2023-05-14T09:08:09;6.57;;;4.82;;
19804;SDS011;10062;51.052;13.756;2023-05-14T09:10:40;5.65;;;3.65;;
19804;SDS011;10062;51.052;13.756;2023-05-14T09:13:12;7.45;;;4.28;;
19804;SDS011;10062;51.052;13.756;2023-05-14T09:15:46;8.93;;;4.53;;
19804;SDS011;10062;51.052;13.756;2023-05-14T09:18:20;9.80;;;5.50;;
19804;SDS011;10062;51.052;13.756;2023-05-14T09:20:51;9.20;;;4.60;;
19804;SDS011;10062;51.052;13.756;2023-05-14T09:23:24;6.90;;;3.35;;
19804;SDS011;10062;51.052;13.756;2023-05-14T09:25:56;6.78;;;3.65;;
19804;SDS011;10062;51.052;13.756;2023-05-14T09:28:28;5.30;;;3.00;;
19804;SDS011;10062;51.052;13.756;2023-05-14T09:31:02;4.93;;;3.30;;
19804;SDS011;10062;51.052;13.756;2023-05-14T09:33:33;6.93;;;4.03;;
19804;SDS011;10062;51.052;13.756;2023-05-14T09:36:06;10.53;;;4.23;;
19804;SDS011;10062;51.052;13.756;2023-05-14T09:38:38;6.63;;;3.50;;
19804;SDS011;10062;51.052;13.756;2023-05-14T09:41:09;5.73;;;4.27;;
19804;SDS011;10062;51.052;13.756;2023-05-14T09:43:41;8.23;;;4.50;;
19804;SDS011;10062;51.052;13.756;2023-05-14T09:46:14;8.02;;;4.35;;
19804;SDS011;10062;51.052;13.756;2023-05-14T09:48:46;6.18;;;4.43;;
19804;SDS011;10062;51.052;13.756;2023-05-14T09:51:17;8.20;;;5.25;;
19804;SDS011;10062;51.052;13.756;2023-05-14T09:53:51;6.10;;;3.83;;
19804;SDS011;10062;51.052;13.756;2023-05-14T09:56:25;7.05;;;4.05;;
19804;SDS011;10062;51.052;13.756;2023-05-14T09:58:56;6.22;;;3.55;;
19804;SDS011;10062;51.052;13.756;2023-05-14T10:01:29;6.72;;;4.05;;
19804;SDS011;10062;51.052;13.756;2023-05-14T10:04:02;8.35;;;3.80;;
19804;SDS011;10062;51.052;13.756;2023-05-14T10:06:37;6.65;;;4.35;;
19804;SDS011;10062;51.052;13.756;2023-05-14T10:09:11;6.10;;;3.70;;
19804;SDS011;10062;51.052;13.756;2023-05-14T10:11:43;7.47;;;4.15;;
19804;SDS011;10062;51.052;13.756;2023-05-14T10:14:23;7.55;;;3.78;;
19804;SDS011;10062;51.052;13.756;2023-05-14T10:17:00;4.97;;;3.90;;
19804;SDS011;10062;51.052;13.756;2023-05-14T10:19:35;6.28;;;4.18;;
19804;SDS011;10062;51.052;13.756;2023-05-14T10:22:10;5.93;;;3.67;;
19804;SDS011;10062;51.052;13.756;2023-05-14T10:24:44;7.00;;;3.85;;
19804;SDS011;10062;51.052;13.756;2023-05-14T10:27:16;6.82;;;3.70;;
19804;SDS011;10062;51.052;13.756;2023-05-14T10:29:50;5.25;;;3.22;;
19804;SDS011;10062;51.052;13.756;2023-05-14T10:32:25;7.35;;;3.22;;
19804;SDS011;10062;51.052;13.756;2023-05-14T10:35:05;5.63;;;3.58;;
19804;SDS011;10062;51.052;13.756;2023-05-14T10:37:46;7.63;;;4.15;;
19804;SDS011;10062;51.052;13.756;2023-05-14T10:40:22;7.18;;;4.15;;
19804;SDS011;10062;51.052;13.756;2023-05-14T10:42:54;5.22;;;3.55;;
19804;SDS011;10062;51.052;13.756;2023-05-14T10:45:29;8.23;;;4.13;;
19804;SDS011;10062;51.052;13.756;2023-05-14T10:48:04;8.15;;;5.00;;
19804;SDS011;10062;51.052;13.756;2023-05-14T10:50:36;6.35;;;5.03;;
19804;SDS011;10062;51.052;13.756;2023-05-14T10:53:09;9.45;;;5.53;;
19804;SDS011;10062;51.052;13.756;2023-05-14T10:55:43;4.72;;;3.50;;
19804;SDS011;10062;51.052;13.756;2023-05-14T10:58:16;5.97;;;4.40;;
19804;SDS011;10062;51.052;13.756;2023-05-14T11:00:48;6.80;;;5.78;;
19804;SDS011;10062;51.052;13.756;2023-05-14T11:03:29;7.97;;;3.35;;
19804;SDS011;10062;51.052;13.756;2023-05-14T11:06:01;4.38;;;3.40;;
19804;SDS011;10062;51.052;13.756;2023-05-14T11:08:33;4.88;;;3.00;;
19804;SDS011;10062;51.052;13.756;2023-05-14T11:11:07;4.72;;;3.38;;
19804;SDS011;10062;51.052;13.756;2023-05-14T11:13:39;4.13;;;3.08;;
19804;SDS011;10062;51.052;13.756;2023-05-14T11:16:12;4.03;;;2.97;;
19804;SDS011;10062;51.052;13.756;2023-05-14T11:18:49;4.55;;;3.67;;
19804;SDS011;10062;51.052;13.756;2023-05-14T11:21:23;7.07;;;3.58;;
19804;SDS011;10062;51.052;13.756;2023-05-14T11:23:55;5.65;;;3.50;;
19804;SDS011;10062;51.052;13.756;2023-05-14T11:26:27;5.50;;;3.40;;
19804;SDS011;10062;51.052;13.756;2023-05-14T11:28:58;5.68;;;3.15;;
19804;SDS011;10062;51.052;13.756;2023-05-14T11:31:30;5.25;;;2.95;;
19804;SDS011;10062;51.052;13.756;2023-05-14T11:34:03;4.68;;;3.15;;
19804;SDS011;10062;51.052;13.756;2023-05-14T11:36:37;5.05;;;3.83;;
19804;SDS011;10062;51.052;13.756;2023-05-14T11:39:16;5.38;;;3.60;;
19804;SDS011;10062;51.052;13.756;2023-05-14T11:41:48;7.07;;;3.90;;
19804;SDS011;10062;51.052;13.756;2023-05-14T11:44:19;5.47;;;3.58;;
19804;SDS011;10062;51.052;13.756;2023-05-14T11:46:52;8.82;;;5.40;;
19804;SDS011;10062;51.052;13.756;2023-05-14T11:49:26;7.05;;;4.55;;
19804;SDS011;10062;51.052;13.756;2023-05-14T11:51:59;8.38;;;4.18;;
19804;SDS011;10062;51.052;13.756;2023-05-14T11:54:32;5.05;;;3.45;;
19804;SDS011;10062;51.052;13.756;2023-05-14T11:57:06;5.85;;;3.65;;
19804;SDS011;10062;51.052;13.756;2023-05-14T11:59:40;5.63;;;3.22;;
19804;SDS011;10062;51.052;13.756;2023-05-14T12:02:13;6.00;;;3.53;;
19804;SDS011;10062;51.052;13.756;2023-05-14T12:04:49;8.80;;;3.40;;
19804;SDS011;10062;51.052;13.756;2023-05-14T12:07:21;5.22;;;3.78;;
19804;SDS011;10062;51.052;13.756;2023-05-14T12:09:53;5.43;;;3.60;;
19804;SDS011;10062;51.052;13.756;2023-05-14T12:12:25;5.53;;;3.38;;
19804;SDS011;10062;51.052;13.756;2023-05-14T12:14:58;6.15;;;3.60;;
19804;SDS011;10062;51.052;13.756;2023-05-14T12:17:30;4.90;;;3.13;;
19804;SDS011;10062;51.052;13.756;2023-05-14T12:20:05;4.53;;;2.95;;
19804;SDS011;10062;51.052;13.756;2023-05-14T12:22:40;4.95;;;3.13;;
19804;SDS011;10062;51.052;13.756;2023-05-14T12:25:12;6.65;;;3.38;;
19804;SDS011;10062;51.052;13.756;2023-05-14T12:27:44;5.22;;;3.15;;
19804;SDS011;10062;51.052;13.756;2023-05-14T12:30:15;5.55;;;3.13;;
19804;SDS011;10062;51.052;13.756;2023-05-14T12:32:47;5.82;;;3.15;;
19804;SDS011;10062;51.052;13.756;2023-05-14T12:35:21;5.90;;;3.17;;
19804;SDS011;10062;51.052;13.756;2023-05-14T12:37:53;5.15;;;3.42;;
19804;SDS011;10062;51.052;13.756;2023-05-14T12:40:25;5.30;;;3.38;;
19804;SDS011;10062;51.052;13.756;2023-05-14T12:42:56;5.40;;;3.00;;
19804;SDS011;10062;51.052;13.756;2023-05-14T12:45:28;6.30;;;2.70;;
19804;SDS011;10062;51.052;13.756;2023-05-14T12:48:00;3.78;;;2.33;;
19804;SDS011;10062;51.052;13.756;2023-05-14T12:50:33;6.93;;;2.80;;
19804;SDS011;10062;51.052;13.756;2023-05-14T12:53:05;5.25;;;2.70;;
19804;SDS011;10062;51.052;13.756;2023-05-14T12:55:36;5.13;;;2.42;;
19804;SDS011;10062;51.052;13.756;2023-05-14T12:58:08;3.40;;;2.22;;
19804;SDS011;10062;51.052;13.756;2023-05-14T13:00:40;4.50;;;2.85;;
19804;SDS011;10062;51.052;13.756;2023-05-14T13:03:12;5.72;;;3.38;;
19804;SDS011;10062;51.052;13.756;2023-05-14T13:05:45;5.35;;;3.05;;
19804;SDS011;10062;51.052;13.756;2023-05-14T13:08:16;7.05;;;3.15;;
19804;SDS011;10062;51.052;13.756;2023-05-14T13:10:50;4.35;;;2.78;;
19804;SDS011;10062;51.052;13.756;2023-05-14T13:13:22;4.97;;;3.13;;
19804;SDS011;10062;51.052;13.756;2023-05-14T13:15:53;4.00;;;2.58;;
19804;SDS011;10062;51.052;13.756;2023-05-14T13:18:25;5.40;;;3.38;;
19804;SDS011;10062;51.052;13.756;2023-05-14T13:20:58;8.18;;;3.72;;
19804;SDS011;10062;51.052;13.756;2023-05-14T13:23:33;6.22;;;3.10;;
19804;SDS011;10062;51.052;13.756;2023-05-14T13:26:04;5.60;;;3.35;;
19804;SDS011;10062;51.052;13.756;2023-05-14T13:28:36;4.85;;;3.15;;
19804;SDS011;10062;51.052;13.756;2023-05-14T13:31:08;5.45;;;3.30;;
19804;SDS011;10062;51.052;13.756;2023-05-14T13:33:41;3.85;;;3.15;;
19804;SDS011;10062;51.052;13.756;2023-05-14T13:36:15;4.83;;;3.40;;
19804;SDS011;10062;51.052;13.756;2023-05-14T13:38:47;4.80;;;2.92;;
19804;SDS011;10062;51.052;13.756;2023-05-14T13:41:18;4.97;;;2.80;;
19804;SDS011;10062;51.052;13.756;2023-05-14T13:43:50;5.23;;;3.23;;
19804;SDS011;10062;51.052;13.756;2023-05-14T13:46:22;5.37;;;3.40;;
19804;SDS011;10062;51.052;13.756;2023-05-14T13:48:53;4.30;;;2.87;;
19804;SDS011;10062;51.052;13.756;2023-05-14T13:51:26;5.43;;;3.63;;
19804;SDS011;10062;51.052;13.756;2023-05-14T13:53:58;5.43;;;3.37;;
19804;SDS011;10062;51.052;13.756;2023-05-14T13:56:30;5.37;;;3.03;;
19804;SDS011;10062;51.052;13.756;2023-05-14T13:59:01;5.87;;;3.30;;
19804;SDS011;10062;51.052;13.756;2023-05-14T14:01:33;4.40;;;3.10;;
19804;SDS011;10062;51.052;13.756;2023-05-14T14:04:05;5.27;;;3.20;;
19804;SDS011;10062;51.052;13.756;2023-05-14T14:06:38;6.10;;;3.80;;
19804;SDS011;10062;51.052;13.756;2023-05-14T14:09:09;5.33;;;3.20;;
19804;SDS011;10062;51.052;13.756;2023-05-14T14:11:42;7.67;;;3.17;;
19804;SDS011;10062;51.052;13.756;2023-05-14T14:14:14;6.50;;;4.73;;
19804;SDS011;10062;51.052;13.756;2023-05-14T14:16:46;8.43;;;4.90;;
19804;SDS011;10062;51.052;13.756;2023-05-14T14:19:18;8.13;;;3.87;;
19804;SDS011;10062;51.052;13.756;2023-05-14T14:21:50;5.00;;;3.43;;
19804;SDS011;10062;51.052;13.756;2023-05-14T14:24:22;8.13;;;4.40;;
19804;SDS011;10062;51.052;13.756;2023-05-14T14:26:54;7.77;;;5.23;;
19804;SDS011;10062;51.052;13.756;2023-05-14T14:29:26;7.70;;;3.93;;
19804;SDS011;10062;51.052;13.756;2023-05-14T14:32:00;4.70;;;3.17;;
19804;SDS011;10062;51.052;13.756;2023-05-14T14:34:31;4.63;;;3.10;;
19804;SDS011;10062;51.052;13.756;2023-05-14T14:37:04;9.67;;;5.77;;
19804;SDS011;10062;51.052;13.756;2023-05-14T14:39:36;8.03;;;5.27;;
19804;SDS011;10062;51.052;13.756;2023-05-14T14:42:08;22.90;;;15.90;;
19804;SDS011;10062;51.052;13.756;2023-05-14T14:44:39;5.37;;;3.50;;
19804;SDS011;10062;51.052;13.756;2023-05-14T14:47:11;5.97;;;4.43;;
19804;SDS011;10062;51.052;13.756;2023-05-14T14:49:43;5.03;;;3.13;;
19804;SDS011;10062;51.052;13.756;2023-05-14T14:52:16;5.20;;;3.47;;
19804;SDS011;10062;51.052;13.756;2023-05-14T14:54:47;5.87;;;3.27;;